createdAt,value
2024-02-27T00:01:33.323Z,2.78
2024-02-27T00:04:02.857Z,3.75
2024-02-27T00:06:31.266Z,3.33
2024-02-27T00:09:04.113Z,2.92
2024-02-27T00:11:32.450Z,2.80
2024-02-27T00:14:02.113Z,3.10
2024-02-27T00:16:32.127Z,3.08
2024-02-27T00:19:00.299Z,2.75
2024-02-27T00:21:28.476Z,3.60
2024-02-27T00:23:56.630Z,3.28
2024-02-27T00:26:25.147Z,3.28
2024-02-27T00:28:53.435Z,3.20
2024-02-27T00:31:23.132Z,3.13
2024-02-27T00:33:52.114Z,3.10
2024-02-27T00:36:20.349Z,3.40
2024-02-27T00:38:48.433Z,3.17
2024-02-27T00:41:16.764Z,3.17
2024-02-27T00:43:45.273Z,3.17
2024-02-27T00:46:13.832Z,3.17
2024-02-27T00:48:43.545Z,3.20
2024-02-27T00:51:11.761Z,3.03
2024-02-27T00:53:41.077Z,2.80
2024-02-27T00:56:10.877Z,3.20
2024-02-27T00:58:41.937Z,2.88
2024-02-27T01:01:10.331Z,3.17
2024-02-27T01:03:38.598Z,2.83
2024-02-27T01:06:09.128Z,3.00
2024-02-27T01:08:37.350Z,2.90
2024-02-27T01:11:09.660Z,3.17
2024-02-27T01:13:37.952Z,2.88
2024-02-27T01:16:06.832Z,3.10
2024-02-27T01:18:35.247Z,3.22
2024-02-27T01:21:06.210Z,3.45
2024-02-27T01:23:36.284Z,3.20
2024-02-27T01:26:04.900Z,2.92
2024-02-27T01:28:33.027Z,3.35
2024-02-27T01:31:01.163Z,3.28
2024-02-27T01:33:29.432Z,3.63
2024-02-27T01:35:57.787Z,3.63
2024-02-27T01:38:26.043Z,3.65
2024-02-27T01:40:55.833Z,3.60
2024-02-27T01:43:25.073Z,3.80
2024-02-27T01:46:04.044Z,3.70
2024-02-27T01:48:32.456Z,3.63
2024-02-27T01:51:00.750Z,3.85
2024-02-27T01:53:29.704Z,3.70
2024-02-27T01:56:00.575Z,4.53
2024-02-27T01:58:28.933Z,4.15
2024-02-27T02:00:57.199Z,4.28
2024-02-27T02:03:27.591Z,3.90
2024-02-27T02:05:57.159Z,4.28
2024-02-27T02:08:25.500Z,4.45
2024-02-27T02:10:54.095Z,4.82
2024-02-27T02:13:23.780Z,4.55
2024-02-27T02:15:52.037Z,4.65
2024-02-27T02:18:20.311Z,4.20
2024-02-27T02:20:50.177Z,5.30
2024-02-27T02:23:18.341Z,4.45
2024-02-27T02:25:49.930Z,5.05
2024-02-27T02:28:18.061Z,5.28
2024-02-27T02:30:46.750Z,5.30
2024-02-27T02:33:15.092Z,4.82
2024-02-27T02:35:45.849Z,5.43
2024-02-27T02:38:15.275Z,4.60
2024-02-27T02:40:43.521Z,4.78
2024-02-27T02:43:12.117Z,5.25
2024-02-27T02:45:41.019Z,5.30
2024-02-27T02:48:12.296Z,5.63
2024-02-27T02:50:40.543Z,6.20
2024-02-27T02:53:08.830Z,6.18
2024-02-27T02:55:42.194Z,6.35
2024-02-27T02:58:10.465Z,6.75
2024-02-27T03:00:38.762Z,6.82
2024-02-27T03:03:07.749Z,6.55
2024-02-27T03:05:35.964Z,7.10
2024-02-27T03:08:04.786Z,7.53
2024-02-27T03:10:32.892Z,7.40
2024-02-27T03:13:02.446Z,7.32
2024-02-27T03:15:30.693Z,7.63
2024-02-27T03:18:01.912Z,7.60
2024-02-27T03:20:30.213Z,8.35
2024-02-27T03:22:58.343Z,8.23
2024-02-27T03:25:26.513Z,9.20
2024-02-27T03:27:54.594Z,10.18
2024-02-27T03:30:24.160Z,9.80
2024-02-27T03:32:52.412Z,10.10
2024-02-27T03:35:20.562Z,9.85
2024-02-27T03:37:48.644Z,10.38
2024-02-27T03:40:18.042Z,10.38
2024-02-27T03:42:46.270Z,10.38
2024-02-27T03:45:14.550Z,12.27
2024-02-27T03:47:45.967Z,11.18
2024-02-27T03:50:14.263Z,11.43
2024-02-27T03:52:44.063Z,12.45
2024-02-27T03:55:12.345Z,11.73
2024-02-27T03:57:40.637Z,13.10
2024-02-27T04:00:11.015Z,13.20
2024-02-27T04:02:39.182Z,14.38
2024-02-27T04:05:11.542Z,15.52
2024-02-27T04:07:39.752Z,15.77
2024-02-27T04:10:09.406Z,15.68
2024-02-27T04:12:37.681Z,16.67
2024-02-27T04:15:07.669Z,16.33
2024-02-27T04:20:11.237Z,18.58
2024-02-27T04:22:39.495Z,19.00
2024-02-27T04:25:08.355Z,19.02
2024-02-27T04:27:36.828Z,20.02
2024-02-27T04:30:06.620Z,18.80
2024-02-27T04:32:34.980Z,20.25
2024-02-27T04:35:03.520Z,19.98
2024-02-27T04:37:33.686Z,19.83
2024-02-27T04:40:05.968Z,21.80
2024-02-27T04:42:34.315Z,22.15
2024-02-27T04:45:02.699Z,22.38
2024-02-27T04:47:30.944Z,21.90
2024-02-27T04:49:59.065Z,20.25
2024-02-27T04:52:27.240Z,20.58
2024-02-27T04:54:57.371Z,19.98
2024-02-27T04:57:25.713Z,21.20
2024-02-27T04:59:55.592Z,20.27
2024-02-27T05:02:23.978Z,19.98
2024-02-27T05:04:52.469Z,21.40
2024-02-27T05:07:20.692Z,19.92
2024-02-27T05:09:49.650Z,19.05
2024-02-27T05:12:19.368Z,20.33
2024-02-27T05:14:48.217Z,19.77
2024-02-27T05:17:16.444Z,18.95
2024-02-27T05:19:44.650Z,20.48
2024-02-27T05:22:12.865Z,18.77
2024-02-27T05:24:41.071Z,19.67
2024-02-27T05:27:09.303Z,20.20
2024-02-27T05:29:38.811Z,20.95
2024-02-27T05:32:09.036Z,20.92
2024-02-27T05:34:37.323Z,19.90
2024-02-27T05:37:05.521Z,20.10
2024-02-27T05:39:33.789Z,21.63
2024-02-27T05:42:01.976Z,21.02
2024-02-27T05:44:30.215Z,22.30
2024-02-27T05:46:59.724Z,24.42
2024-02-27T05:49:27.971Z,23.05
2024-02-27T05:51:56.082Z,22.92
2024-02-27T05:54:26.060Z,21.75
2024-02-27T05:56:54.614Z,22.08
2024-02-27T05:59:22.840Z,21.17
2024-02-27T06:01:50.930Z,21.63
2024-02-27T06:04:20.472Z,23.55
2024-02-27T06:06:48.820Z,24.17
2024-02-27T06:09:16.991Z,25.45
2024-02-27T06:11:45.215Z,25.42
2024-02-27T06:14:14.403Z,24.02
2024-02-27T06:16:42.691Z,22.90
2024-02-27T06:19:11.362Z,26.55
2024-02-27T06:21:58.178Z,22.98
2024-02-27T06:24:28.382Z,22.77
2024-02-27T06:26:56.565Z,24.23
2024-02-27T06:29:24.806Z,24.52
2024-02-27T06:31:53.019Z,26.17
2024-02-27T06:34:21.251Z,26.48
2024-02-27T06:36:51.183Z,25.77
2024-02-27T06:39:19.303Z,26.10
2024-02-27T06:41:50.052Z,24.70
2024-02-27T06:44:18.803Z,21.95
2024-02-27T06:46:47.375Z,27.08
2024-02-27T06:49:22.541Z,25.35
2024-02-27T06:51:53.181Z,24.55
2024-02-27T06:54:21.812Z,25.90
2024-02-27T06:56:50.878Z,25.40
2024-02-27T06:59:19.282Z,22.30
2024-02-27T07:01:47.468Z,23.08
2024-02-27T07:04:17.882Z,21.35
2024-02-27T07:06:46.694Z,22.35
2024-02-27T07:09:16.382Z,20.80
2024-02-27T07:11:44.534Z,25.52
2024-02-27T07:14:13.802Z,22.70
2024-02-27T07:16:42.103Z,22.65
2024-02-27T07:19:10.317Z,25.60
2024-02-27T07:21:38.677Z,20.33
2024-02-27T07:24:07.740Z,20.83
2024-02-27T07:26:40.220Z,21.70
2024-02-27T07:29:08.488Z,22.40
2024-02-27T07:31:39.745Z,19.70
2024-02-27T07:34:08.198Z,21.88
2024-02-27T07:36:36.512Z,19.83
2024-02-27T07:39:04.858Z,19.95
2024-02-27T07:41:33.081Z,20.23
2024-02-27T07:44:03.959Z,20.80
2024-02-27T07:46:34.656Z,22.27
2024-02-27T07:49:02.836Z,19.83
2024-02-27T07:51:33.994Z,22.98
2024-02-27T07:54:04.441Z,20.35
2024-02-27T07:56:33.740Z,21.20
2024-02-27T07:59:03.605Z,22.20
2024-02-27T08:01:32.105Z,21.83
2024-02-27T08:04:00.545Z,18.00
2024-02-27T08:06:29.440Z,17.65
2024-02-27T08:08:57.972Z,20.25
2024-02-27T08:11:27.413Z,26.65
2024-02-27T08:13:55.761Z,19.00
2024-02-27T08:16:25.261Z,20.75
2024-02-27T08:18:53.603Z,20.55
2024-02-27T08:21:22.062Z,19.33
2024-02-27T08:23:50.372Z,17.83
2024-02-27T08:26:18.485Z,19.77
2024-02-27T08:28:46.687Z,17.70
2024-02-27T08:31:15.482Z,20.23
2024-02-27T08:33:45.218Z,18.88
2024-02-27T08:36:13.748Z,20.67
2024-02-27T08:38:44.839Z,19.00
2024-02-27T08:41:13.226Z,18.95
2024-02-27T08:43:44.159Z,20.80
2024-02-27T08:46:17.982Z,19.73
2024-02-27T08:48:47.911Z,18.30
2024-02-27T08:51:16.237Z,17.13
2024-02-27T08:53:44.444Z,17.48
2024-02-27T08:56:12.543Z,15.93
2024-02-27T08:58:40.735Z,18.00
2024-02-27T09:01:08.995Z,17.33
2024-02-27T09:03:37.203Z,16.35
2024-02-27T09:06:10.590Z,16.52
2024-02-27T09:08:38.805Z,15.70
2024-02-27T09:11:07.055Z,18.38
2024-02-27T09:13:35.790Z,20.23
2024-02-27T09:16:04.027Z,19.40
2024-02-27T09:18:32.289Z,16.35
2024-02-27T09:21:01.879Z,15.63
2024-02-27T09:23:31.387Z,16.95
2024-02-27T09:25:59.645Z,15.20
2024-02-27T09:28:27.849Z,14.25
2024-02-27T09:31:00.748Z,13.50
2024-02-27T09:33:29.018Z,18.08
2024-02-27T09:35:57.385Z,15.75
2024-02-27T09:38:25.512Z,15.88
2024-02-27T09:40:55.503Z,19.20
2024-02-27T09:43:25.456Z,14.80
2024-02-27T09:45:53.922Z,12.55
2024-02-27T09:48:29.885Z,15.82
2024-02-27T09:50:59.851Z,12.43
2024-02-27T09:53:28.187Z,11.80
2024-02-27T09:55:57.870Z,11.82
2024-02-27T09:58:27.111Z,11.02
2024-02-27T10:01:07.212Z,12.15
2024-02-27T10:03:37.873Z,11.18
2024-02-27T10:06:08.811Z,10.82
2024-02-27T10:08:38.918Z,10.25
2024-02-27T10:11:12.083Z,11.55
2024-02-27T10:13:40.353Z,10.82
2024-02-27T10:16:08.657Z,10.88
2024-02-27T10:18:37.570Z,11.45
2024-02-27T10:21:06.524Z,11.20
2024-02-27T10:23:36.950Z,11.52
2024-02-27T10:26:11.460Z,11.45
2024-02-27T10:28:39.985Z,11.18
2024-02-27T10:31:10.841Z,11.63
2024-02-27T10:33:40.290Z,9.55
2024-02-27T10:36:10.469Z,11.07
2024-02-27T10:38:38.880Z,10.07
2024-02-27T10:41:07.092Z,9.55
2024-02-27T10:43:38.378Z,10.30
2024-02-27T10:46:07.650Z,10.88
2024-02-27T10:48:41.870Z,10.63
2024-02-27T10:51:14.672Z,13.07
2024-02-27T10:53:44.339Z,10.13
2024-02-27T10:56:12.559Z,9.40
2024-02-27T10:58:42.773Z,8.65
2024-02-27T11:01:11.857Z,8.85
2024-02-27T11:03:43.193Z,9.45
2024-02-27T11:06:16.237Z,8.88
2024-02-27T11:08:48.059Z,9.63
2024-02-27T11:11:16.856Z,9.93
2024-02-27T11:13:50.870Z,9.80
2024-02-27T11:16:23.199Z,8.75
2024-02-27T11:18:55.780Z,8.77
2024-02-27T11:21:24.848Z,8.85
2024-02-27T11:23:53.518Z,8.75
2024-02-27T11:26:22.178Z,10.82
2024-02-27T11:28:52.623Z,9.98
2024-02-27T11:31:27.679Z,8.85
2024-02-27T11:33:58.545Z,8.70
2024-02-27T11:36:27.929Z,9.50
2024-02-27T11:38:59.141Z,7.90
2024-02-27T11:41:29.120Z,8.20
2024-02-27T11:44:01.557Z,8.88
2024-02-27T11:46:40.304Z,10.25
2024-02-27T11:49:10.426Z,10.90
2024-02-27T11:51:39.671Z,8.88
2024-02-27T11:54:13.920Z,8.88
2024-02-27T11:56:46.653Z,8.52
2024-02-27T11:59:20.159Z,8.85
2024-02-27T12:02:02.136Z,9.15
2024-02-27T12:04:30.511Z,9.07
2024-02-27T12:06:58.996Z,8.82
2024-02-27T12:09:29.260Z,9.02
2024-02-27T12:11:58.302Z,9.32
2024-02-27T12:14:28.150Z,9.20
2024-02-27T12:16:56.287Z,8.32
2024-02-27T12:19:24.508Z,9.43
2024-02-27T12:21:52.780Z,8.65
2024-02-27T12:24:21.644Z,9.80
2024-02-27T12:26:50.923Z,8.95
2024-02-27T12:29:19.415Z,9.15
2024-02-27T12:31:50.044Z,8.20
2024-02-27T12:34:18.291Z,9.02
2024-02-27T12:36:47.350Z,9.73
2024-02-27T12:39:16.333Z,8.40
2024-02-27T12:41:44.656Z,8.95
2024-02-27T12:44:12.808Z,8.05
2024-02-27T12:46:41.030Z,8.30
2024-02-27T12:49:11.274Z,8.00
2024-02-27T12:51:39.985Z,8.18
2024-02-27T12:54:08.289Z,9.50
2024-02-27T12:56:39.457Z,8.82
2024-02-27T12:59:10.839Z,7.85
2024-02-27T13:01:41.052Z,8.65
2024-02-27T13:04:11.129Z,8.30
2024-02-27T13:06:39.584Z,8.55
2024-02-27T13:09:07.900Z,8.63
2024-02-27T13:11:36.139Z,8.10
2024-02-27T13:14:04.357Z,8.88
2024-02-27T13:16:32.744Z,8.68
2024-02-27T13:19:01.286Z,9.30
2024-02-27T13:21:31.349Z,8.10
2024-02-27T13:24:04.076Z,8.77
2024-02-27T13:26:32.739Z,9.13
2024-02-27T13:29:00.862Z,8.95
2024-02-27T13:31:29.586Z,8.95
2024-02-27T13:33:57.823Z,9.05
2024-02-27T13:36:26.134Z,10.00
2024-02-27T13:38:55.690Z,9.88
2024-02-27T13:41:24.079Z,8.77
2024-02-27T13:43:52.578Z,7.78
2024-02-27T13:46:20.835Z,9.30
2024-02-27T13:48:49.072Z,9.30
2024-02-27T13:51:17.949Z,8.07
2024-02-27T13:53:46.278Z,8.43
2024-02-27T13:56:15.890Z,9.02
2024-02-27T13:58:44.143Z,8.15
2024-02-27T14:01:12.348Z,7.65
2024-02-27T14:03:43.694Z,8.80
2024-02-27T14:06:12.167Z,7.95
2024-02-27T14:08:40.540Z,8.50
2024-02-27T14:11:10.035Z,7.50
2024-02-27T14:13:41.402Z,8.40
2024-02-27T14:16:09.773Z,9.43
2024-02-27T14:18:38.077Z,7.88
2024-02-27T14:21:07.085Z,8.82
2024-02-27T14:23:35.218Z,8.88
2024-02-27T14:26:03.327Z,8.55
2024-02-27T14:28:31.437Z,8.73
2024-02-27T15:16:22.209Z,8.55
2024-02-27T15:18:51.910Z,8.55
2024-02-27T15:21:21.739Z,8.93
2024-02-27T15:23:51.957Z,9.30
2024-02-27T15:26:20.791Z,8.75
2024-02-27T15:28:49.432Z,9.23
2024-02-27T15:31:18.813Z,8.50
2024-02-27T15:33:49.193Z,9.10
2024-02-27T15:36:18.060Z,9.00
2024-02-27T15:38:46.877Z,9.38
2024-02-27T15:41:15.732Z,9.25
2024-02-27T15:43:44.560Z,9.43
2024-02-27T15:46:13.518Z,10.13
2024-02-27T15:48:43.343Z,10.50
2024-02-27T15:51:14.124Z,9.68
2024-02-27T15:53:44.494Z,11.52
2024-02-27T15:56:13.301Z,9.35
2024-02-27T15:58:41.957Z,9.32
2024-02-27T16:01:10.938Z,10.05
2024-02-27T16:03:58.457Z,9.73
2024-02-27T16:06:34.946Z,9.95
2024-02-27T16:09:03.916Z,9.38
2024-02-27T16:11:32.860Z,9.18
2024-02-27T16:14:01.616Z,10.15
2024-02-27T16:16:30.262Z,9.70
2024-02-27T16:18:58.998Z,10.73
2024-02-27T16:21:41.003Z,9.20
2024-02-27T16:24:10.605Z,9.82
2024-02-27T16:26:40.381Z,9.45
2024-02-27T16:29:09.197Z,9.93
2024-02-27T16:31:37.872Z,9.65
2024-02-27T16:34:06.641Z,9.80
2024-02-27T16:36:36.982Z,9.60
2024-02-27T16:39:06.519Z,9.88
2024-02-27T16:41:35.331Z,10.10
2024-02-27T16:44:04.921Z,9.60
2024-02-27T16:46:33.519Z,10.13
2024-02-27T16:49:02.249Z,10.27
2024-02-27T16:51:31.019Z,9.55
2024-02-27T16:54:01.038Z,10.48
2024-02-27T16:56:30.043Z,10.15
2024-02-27T16:59:01.069Z,9.18
2024-02-27T17:01:29.821Z,9.07
2024-02-27T17:03:58.828Z,9.95
2024-02-27T17:06:28.176Z,9.60
2024-02-27T17:08:56.823Z,9.93
2024-02-27T17:11:27.370Z,9.98
2024-02-27T17:13:56.054Z,10.02
2024-02-27T17:16:24.805Z,10.43
2024-02-27T17:18:53.648Z,10.13
2024-02-27T17:21:22.616Z,10.30
2024-02-27T17:23:51.327Z,9.93
2024-02-27T17:26:20.027Z,10.60
2024-02-27T17:28:50.003Z,9.75
2024-02-27T17:31:20.146Z,9.02
2024-02-27T17:33:49.238Z,10.02
2024-02-27T17:36:18.706Z,10.20
2024-02-27T17:38:47.450Z,10.30
2024-02-27T17:41:17.192Z,10.05
2024-02-27T17:43:45.800Z,10.32
2024-02-27T17:46:16.231Z,11.35
2024-02-27T17:48:45.126Z,11.00
2024-02-27T17:51:13.847Z,11.68
2024-02-27T17:53:42.535Z,9.60
2024-02-27T17:56:14.071Z,9.65
2024-02-27T17:58:42.951Z,11.60
2024-02-27T18:01:11.631Z,12.25
2024-02-27T18:03:41.850Z,11.80
2024-02-27T18:06:10.651Z,11.65
2024-02-27T18:08:39.415Z,12.35
2024-02-27T18:11:08.117Z,11.55
2024-02-27T18:13:36.772Z,11.82
2024-02-27T18:16:05.817Z,13.57
2024-02-27T18:18:34.610Z,11.88
2024-02-27T18:21:05.085Z,11.98
2024-02-27T18:23:33.745Z,11.80
2024-02-27T18:26:02.464Z,11.32
2024-02-27T18:28:31.163Z,12.05
2024-02-27T18:31:00.079Z,10.68
2024-02-27T18:33:28.812Z,11.25
2024-02-27T18:35:57.670Z,11.85
2024-02-27T18:38:28.835Z,11.80
2024-02-27T18:40:58.888Z,10.77
2024-02-27T18:43:28.231Z,11.43
2024-02-27T18:45:56.936Z,12.45
2024-02-27T18:48:25.889Z,11.27
2024-02-27T18:50:56.378Z,11.02
2024-02-27T18:53:26.526Z,10.57
2024-02-27T18:55:55.878Z,11.05
2024-02-27T18:58:24.621Z,10.68
2024-02-27T19:00:53.362Z,12.57
2024-02-27T19:03:25.210Z,11.45
2024-02-27T19:05:53.955Z,11.45
2024-02-27T19:08:23.998Z,11.32
2024-02-27T19:10:55.936Z,11.85
2024-02-27T19:13:26.645Z,11.95
2024-02-27T19:15:56.225Z,12.38
2024-02-27T19:18:24.969Z,13.40
2024-02-27T19:20:54.456Z,11.98
2024-02-27T19:23:23.150Z,12.23
2024-02-27T19:25:51.721Z,12.18
2024-02-27T19:28:21.714Z,12.60
2024-02-27T19:30:50.317Z,11.88
2024-02-27T19:33:26.281Z,12.13
2024-02-27T19:35:55.119Z,12.18
2024-02-27T19:38:23.880Z,13.10
2024-02-27T19:40:55.538Z,11.55
2024-02-27T19:43:25.785Z,11.30
2024-02-27T19:45:54.565Z,11.02
2024-02-27T19:48:23.662Z,10.70
2024-02-27T19:50:57.692Z,12.20
2024-02-27T19:53:26.427Z,11.43
2024-02-27T19:55:55.099Z,11.52
2024-02-27T19:58:25.231Z,11.48
2024-02-27T20:00:54.234Z,11.90
2024-02-27T20:03:22.983Z,11.77
2024-02-27T20:05:55.838Z,11.48
2024-02-27T20:08:29.486Z,12.02
2024-02-27T20:11:01.628Z,12.93
2024-02-27T20:13:35.934Z,11.82
2024-02-27T20:16:09.811Z,11.95
2024-02-27T20:18:48.760Z,11.55
2024-02-27T20:21:19.392Z,12.48
2024-02-27T20:23:52.158Z,11.43
2024-02-27T20:26:26.587Z,11.75
2024-02-27T20:29:11.179Z,11.63
2024-02-27T20:31:56.897Z,13.00
2024-02-27T20:34:33.972Z,11.48
2024-02-27T20:37:05.791Z,12.00
2024-02-27T20:39:34.222Z,11.20
2024-02-27T20:42:05.447Z,12.20
2024-02-27T20:44:35.057Z,12.35
2024-02-27T20:47:03.167Z,11.82
2024-02-27T20:49:33.097Z,12.13
2024-02-27T20:52:02.528Z,11.88
2024-02-27T20:54:31.661Z,11.93
2024-02-27T20:56:59.881Z,12.48
2024-02-27T20:59:29.897Z,11.27
2024-02-27T21:02:00.096Z,12.43
2024-02-27T21:04:28.429Z,12.60
2024-02-27T21:06:59.638Z,11.68
2024-02-27T21:09:27.835Z,12.57
2024-02-27T21:11:56.215Z,12.18
2024-02-27T21:14:24.546Z,12.02
2024-02-27T21:16:52.881Z,12.98
2024-02-27T21:19:23.177Z,13.23
2024-02-27T21:21:51.615Z,12.00
2024-02-27T21:24:23.493Z,12.52
2024-02-27T21:26:51.653Z,12.50
2024-02-27T21:29:19.843Z,12.30
2024-02-27T21:31:48.736Z,12.48
2024-02-27T21:34:16.940Z,12.07
2024-02-27T21:36:46.535Z,13.02
2024-02-27T21:39:14.873Z,12.68
2024-02-27T21:41:43.069Z,11.90
2024-02-27T21:44:11.182Z,12.75
2024-02-27T21:46:39.544Z,13.13
2024-02-27T21:49:07.746Z,12.82
2024-02-27T21:51:41.309Z,12.73
2024-02-27T21:54:18.544Z,12.13
2024-02-27T21:56:47.956Z,12.75
2024-02-27T21:59:17.440Z,12.07
2024-02-27T22:01:45.566Z,13.55
2024-02-27T22:04:13.802Z,13.23
2024-02-27T22:06:41.989Z,14.20
2024-02-27T22:09:11.497Z,13.07
2024-02-27T22:11:42.432Z,14.20
2024-02-27T22:14:11.302Z,13.02
2024-02-27T22:16:39.561Z,13.13
2024-02-27T22:19:07.855Z,13.57
2024-02-27T22:21:36.061Z,13.60
2024-02-27T22:24:04.422Z,13.07
2024-02-27T22:26:32.543Z,12.70
2024-02-27T22:29:02.074Z,13.18
2024-02-27T22:31:30.203Z,13.57
2024-02-27T22:33:58.353Z,13.30
2024-02-27T22:36:26.588Z,13.23
2024-02-27T22:38:54.688Z,13.85
2024-02-27T22:41:22.889Z,13.88
2024-02-27T22:43:50.984Z,13.73
2024-02-27T22:46:25.563Z,14.07
2024-02-27T22:48:54.020Z,14.25
2024-02-27T22:51:22.327Z,13.95
2024-02-27T22:53:50.498Z,14.35
2024-02-27T22:56:18.599Z,13.55
2024-02-27T22:58:46.707Z,12.85
2024-02-27T23:01:14.984Z,14.25
2024-02-27T23:03:47.562Z,14.70
2024-02-27T23:06:15.780Z,15.63
2024-02-27T23:08:44.036Z,14.15
2024-02-27T23:11:12.594Z,14.50
2024-02-27T23:13:40.467Z,14.13
2024-02-27T23:16:08.775Z,14.43
2024-02-27T23:18:36.901Z,14.73
2024-02-27T23:21:06.684Z,15.05
2024-02-27T23:23:34.892Z,14.27
2024-02-27T23:26:03.807Z,15.15
2024-02-27T23:28:31.920Z,15.43
2024-02-27T23:31:00.137Z,15.38
2024-02-27T23:33:28.789Z,15.32
2024-02-27T23:35:57.137Z,15.48
2024-02-27T23:38:26.771Z,15.40
2024-02-27T23:40:57.981Z,17.02
2024-02-27T23:43:26.182Z,14.93
2024-02-27T23:45:54.442Z,15.48
2024-02-27T23:48:22.722Z,15.05
2024-02-27T23:50:52.193Z,14.50
2024-02-27T23:53:21.764Z,15.63
2024-02-27T23:55:51.438Z,15.77
2024-02-27T23:58:19.626Z,14.70
